createdAt,value
2018-09-24T00:00:16.253Z,11.30
2018-09-24T00:02:44.926Z,11.40
2018-09-24T00:05:13.952Z,11.40
2018-09-24T00:07:42.807Z,11.30
2018-09-24T00:10:11.797Z,11.30
2018-09-24T00:12:40.870Z,11.40
2018-09-24T00:15:09.639Z,11.60
2018-09-24T00:17:38.704Z,11.30
2018-09-24T00:20:07.860Z,11.60
2018-09-24T00:22:36.792Z,11.50
2018-09-24T00:25:05.322Z,11.50
2018-09-24T00:27:34.365Z,11.30
2018-09-24T00:30:03.359Z,11.60
2018-09-24T00:32:31.947Z,11.40
2018-09-24T00:35:00.860Z,11.50
2018-09-24T00:37:29.814Z,11.40
2018-09-24T00:39:58.708Z,11.30
2018-09-24T00:42:27.327Z,11.30
2018-09-24T00:44:56.002Z,11.30
2018-09-24T00:47:24.499Z,11.30
2018-09-24T00:49:52.976Z,11.20
2018-09-24T00:52:22.744Z,11.00
2018-09-24T00:54:51.364Z,11.10
2018-09-24T00:57:20.134Z,11.20
2018-09-24T00:59:48.565Z,11.30
2018-09-24T01:02:17.288Z,11.20
2018-09-24T01:04:46.165Z,11.20
2018-09-24T01:07:14.692Z,11.20
2018-09-24T01:09:43.322Z,11.10
2018-09-24T01:12:12.348Z,11.30
2018-09-24T01:14:41.122Z,11.20
2018-09-24T01:17:09.949Z,11.10
2018-09-24T01:19:38.840Z,11.20
2018-09-24T01:22:07.671Z,11.20
2018-09-24T01:24:36.409Z,11.20
2018-09-24T01:27:05.077Z,11.40
2018-09-24T01:29:33.802Z,11.00
2018-09-24T01:32:02.437Z,11.30
2018-09-24T01:34:31.353Z,11.10
2018-09-24T01:36:59.939Z,11.30
2018-09-24T01:39:28.558Z,11.40
2018-09-24T01:41:57.282Z,11.30
2018-09-24T01:44:25.779Z,11.20
2018-09-24T01:46:54.377Z,11.30
2018-09-24T01:49:23.143Z,11.30
2018-09-24T01:51:51.723Z,11.20
2018-09-24T01:54:21.294Z,11.10
2018-09-24T01:56:50.177Z,11.10
2018-09-24T01:59:18.918Z,11.30
2018-09-24T02:01:47.917Z,11.30
2018-09-24T02:04:16.675Z,11.00
2018-09-24T02:06:45.905Z,11.10
2018-09-24T02:09:14.836Z,11.30
2018-09-24T02:11:44.023Z,11.30
2018-09-24T02:14:12.867Z,11.40
2018-09-24T02:16:41.883Z,11.20
2018-09-24T02:19:10.742Z,11.30
2018-09-24T02:21:40.912Z,11.10
2018-09-24T02:24:09.861Z,10.90
2018-09-24T02:26:38.873Z,10.90
2018-09-24T02:29:08.055Z,10.90
2018-09-24T02:31:41.313Z,10.80
2018-09-24T02:34:10.904Z,10.80
2018-09-24T02:36:40.599Z,10.80
2018-09-24T02:39:10.407Z,10.90
2018-09-24T02:41:39.869Z,10.90
2018-09-24T02:44:08.759Z,11.00
2018-09-24T02:46:44.148Z,11.00
2018-09-24T02:49:14.428Z,11.10
2018-09-24T02:51:43.651Z,11.00
2018-09-24T02:54:12.133Z,11.10
2018-09-24T02:56:46.358Z,11.10
2018-09-24T02:59:15.133Z,11.00
2018-09-24T03:01:43.968Z,10.90
2018-09-24T03:04:12.662Z,10.80
2018-09-24T03:06:41.494Z,10.90
2018-09-24T03:09:13.359Z,10.90
2018-09-24T03:11:42.444Z,11.00
2018-09-24T03:14:11.033Z,11.00
2018-09-24T03:16:39.723Z,11.00
2018-09-24T03:19:08.520Z,11.00
2018-09-24T03:21:37.496Z,11.10
2018-09-24T03:24:06.589Z,10.90
2018-09-24T03:26:44.467Z,10.90
2018-09-24T03:29:22.662Z,11.00
2018-09-24T03:31:51.909Z,11.10
2018-09-24T03:34:20.599Z,11.10
2018-09-24T03:36:49.706Z,11.10
2018-09-24T03:39:18.549Z,11.20
2018-09-24T03:41:47.107Z,11.20
2018-09-24T03:44:15.754Z,11.20
2018-09-24T03:46:44.292Z,11.20
2018-09-24T03:49:12.812Z,11.20
2018-09-24T03:56:51.039Z,11.20
2018-09-24T03:59:20.044Z,11.20
2018-09-24T04:01:48.629Z,11.30
2018-09-24T04:04:22.781Z,11.20
2018-09-24T04:06:56.914Z,11.20
2018-09-24T04:09:31.030Z,11.20
2018-09-24T04:12:04.961Z,11.40
2018-09-24T04:14:38.756Z,11.30
2018-09-24T04:17:12.992Z,11.30
2018-09-24T04:19:47.026Z,11.30
2018-09-24T04:22:20.931Z,11.30
2018-09-24T04:24:54.816Z,11.10
2018-09-24T04:27:28.846Z,11.20
2018-09-24T04:30:02.670Z,11.10
2018-09-24T04:32:36.318Z,11.00
2018-09-24T04:35:10.767Z,10.90
2018-09-24T04:37:44.697Z,10.90
2018-09-24T04:40:18.497Z,11.00
2018-09-24T04:42:52.343Z,10.90
2018-09-24T04:45:26.434Z,10.90
2018-09-24T04:48:00.514Z,10.80
2018-09-24T04:50:37.290Z,10.90
2018-09-24T04:53:11.312Z,10.90
2018-09-24T04:55:45.265Z,10.80
2018-09-24T05:03:18.946Z,10.80
2018-09-24T05:05:52.997Z,10.60
2018-09-24T05:08:26.976Z,10.60
2018-09-24T05:11:01.122Z,10.60
2018-09-24T05:13:35.168Z,10.70
2018-09-24T05:16:09.253Z,10.80
2018-09-24T05:18:43.193Z,10.60
2018-09-24T05:21:17.348Z,10.50
2018-09-24T05:23:51.360Z,10.50
2018-09-24T05:26:25.071Z,10.60
2018-09-24T05:28:58.855Z,10.60
2018-09-24T05:31:32.601Z,10.70
2018-09-24T05:34:06.549Z,10.70
2018-09-24T05:36:40.279Z,10.80
2018-09-24T05:39:14.596Z,10.60
2018-09-24T05:41:48.730Z,10.50
2018-09-24T05:44:22.706Z,10.60
2018-09-24T05:46:56.943Z,10.60
2018-09-24T05:49:31.343Z,10.60
2018-09-24T05:52:05.271Z,10.60
2018-09-24T05:54:39.337Z,10.60
2018-09-24T05:57:13.267Z,10.40
2018-09-24T05:59:47.212Z,10.60
2018-09-24T06:02:21.053Z,10.70
2018-09-24T06:04:55.206Z,10.80
2018-09-24T06:07:29.073Z,10.90
2018-09-24T06:10:03.242Z,10.90
2018-09-24T06:12:37.461Z,10.90
2018-09-24T06:15:11.743Z,10.80
2018-09-24T06:17:45.483Z,10.90
2018-09-24T06:20:19.496Z,11.00
2018-09-24T06:22:53.296Z,11.00
2018-09-24T06:25:27.211Z,11.10
2018-09-24T06:28:00.985Z,11.10
2018-09-24T06:30:34.825Z,11.30
2018-09-24T06:33:08.722Z,11.20
2018-09-24T06:35:42.864Z,11.10
2018-09-24T06:38:17.286Z,11.20
2018-09-24T06:40:51.287Z,11.40
2018-09-24T06:43:25.330Z,11.00
2018-09-24T06:45:59.259Z,11.10
2018-09-24T06:48:33.514Z,11.40
2018-09-24T06:51:07.579Z,11.60
2018-09-24T06:53:41.424Z,11.70
2018-09-24T06:56:15.494Z,11.70
2018-09-24T06:58:49.672Z,11.80
2018-09-24T07:01:23.675Z,11.90
2018-09-24T07:03:57.475Z,11.40
2018-09-24T07:06:31.433Z,11.60
2018-09-24T07:09:05.567Z,11.70
2018-09-24T07:11:39.471Z,11.60
2018-09-24T07:14:13.426Z,11.50
2018-09-24T07:16:47.332Z,11.60
2018-09-24T07:19:21.148Z,11.70
2018-09-24T07:21:55.098Z,11.70
2018-09-24T07:24:28.996Z,11.90
2018-09-24T07:27:03.053Z,11.80
2018-09-24T07:29:36.930Z,11.70
2018-09-24T07:32:10.884Z,11.70
2018-09-24T07:34:44.981Z,11.40
2018-09-24T07:37:19.059Z,11.50
2018-09-24T07:39:53.258Z,11.70
2018-09-24T07:42:27.541Z,11.80
2018-09-24T07:45:01.503Z,11.80
2018-09-24T07:50:29.129Z,12.00
2018-09-24T07:53:03.193Z,12.10
2018-09-24T07:55:37.371Z,12.00
2018-09-24T07:58:11.365Z,11.80
2018-09-24T08:00:45.330Z,11.90
2018-09-24T08:03:19.251Z,11.80
2018-09-24T08:05:53.463Z,11.80
2018-09-24T08:08:27.332Z,11.90
2018-09-24T08:11:01.426Z,11.80
2018-09-24T08:13:35.468Z,11.90
2018-09-24T08:16:09.404Z,12.10
2018-09-24T08:18:43.112Z,12.10
2018-09-24T08:21:16.850Z,12.30
2018-09-24T08:23:50.770Z,12.30
2018-09-24T08:26:24.870Z,12.30
2018-09-24T08:28:59.001Z,12.40
2018-09-24T08:31:33.102Z,12.40
2018-09-24T08:34:06.963Z,12.40
2018-09-24T08:36:41.632Z,12.30
2018-09-24T08:39:15.952Z,12.40
2018-09-24T08:41:50.477Z,12.50
2018-09-24T08:44:24.717Z,12.60
2018-09-24T08:46:58.740Z,12.70
2018-09-24T08:49:32.717Z,12.60
2018-09-24T08:52:06.744Z,12.50
2018-09-24T08:54:40.896Z,12.50
2018-09-24T08:57:15.066Z,12.50
2018-09-24T08:59:48.967Z,12.50
2018-09-24T09:02:22.882Z,12.90
2018-09-24T09:04:57.350Z,13.10
2018-09-24T09:07:32.026Z,12.90
2018-09-24T09:10:05.974Z,13.10
2018-09-24T09:12:40.057Z,13.20
2018-09-24T09:15:14.056Z,13.20
2018-09-24T09:17:47.938Z,13.20
2018-09-24T09:20:21.883Z,13.30
2018-09-24T09:22:56.086Z,13.10
2018-09-24T09:25:29.812Z,12.80
2018-09-24T09:28:03.741Z,13.10
2018-09-24T09:30:37.967Z,13.20
2018-09-24T09:33:12.562Z,13.30
2018-09-24T09:35:46.996Z,13.10
2018-09-24T09:38:21.410Z,13.30
2018-09-24T09:40:55.515Z,13.50
2018-09-24T09:43:29.450Z,13.80
2018-09-24T09:46:03.619Z,13.50
2018-09-24T09:48:37.840Z,13.70
2018-09-24T09:51:11.808Z,13.60
2018-09-24T09:53:45.955Z,13.90
2018-09-24T09:56:20.238Z,13.80
2018-09-24T09:58:54.553Z,13.70
2018-09-24T10:01:28.564Z,13.60
2018-09-24T10:04:02.910Z,13.50
2018-09-24T10:06:37.270Z,13.20
2018-09-24T10:09:13.773Z,13.20
2018-09-24T10:11:47.852Z,13.20
2018-09-24T10:14:21.738Z,13.50
2018-09-24T10:16:55.857Z,13.40
2018-09-24T10:19:29.692Z,13.50
2018-09-24T10:22:03.870Z,13.50
2018-09-24T10:24:37.972Z,13.60
2018-09-24T10:27:12.264Z,13.50
2018-09-24T10:29:46.783Z,13.50
2018-09-24T10:32:21.245Z,13.70
2018-09-24T10:34:55.509Z,13.80
2018-09-24T10:37:29.849Z,14.10
2018-09-24T10:40:05.148Z,14.30
2018-09-24T10:42:43.035Z,14.30
2018-09-24T10:45:19.429Z,14.40
2018-09-24T10:47:55.501Z,14.30
2018-09-24T10:50:29.595Z,14.10
2018-09-24T10:53:03.799Z,14.00
2018-09-24T10:55:38.394Z,14.00
2018-09-24T10:58:12.899Z,14.20
2018-09-24T11:00:47.441Z,14.40
2018-09-24T11:03:21.918Z,14.30
2018-09-24T11:05:55.917Z,14.40
2018-09-24T11:08:29.901Z,14.40
2018-09-24T11:11:04.019Z,14.50
2018-09-24T11:13:38.023Z,14.50
2018-09-24T11:16:12.176Z,14.50
2018-09-24T11:18:46.024Z,14.40
2018-09-24T11:21:20.512Z,14.50
2018-09-24T11:23:55.072Z,14.70
2018-09-24T11:29:03.633Z,14.60
2018-09-24T11:31:38.245Z,14.60
2018-09-24T11:34:12.706Z,14.50
2018-09-24T11:36:47.034Z,14.50
2018-09-24T11:39:21.021Z,14.40
2018-09-24T11:41:55.171Z,14.60
2018-09-24T11:44:29.478Z,14.60
2018-09-24T11:47:03.814Z,14.50
2018-09-24T11:49:39.412Z,14.00
2018-09-24T11:52:13.426Z,14.00
2018-09-24T11:54:49.003Z,13.80
2018-09-24T11:57:23.126Z,14.10
2018-09-24T11:59:57.244Z,14.30
2018-09-24T12:02:32.081Z,14.40
2018-09-24T12:05:06.227Z,14.20
2018-09-24T12:07:40.350Z,14.20
2018-09-24T12:10:14.717Z,14.00
2018-09-24T12:12:48.468Z,14.20
2018-09-24T12:15:22.296Z,14.10
2018-09-24T12:17:56.186Z,14.20
2018-09-24T12:20:31.503Z,14.30
2018-09-24T12:23:05.371Z,14.70
2018-09-24T12:25:39.835Z,14.90
2018-09-24T12:28:14.068Z,14.90
2018-09-24T12:30:49.315Z,14.80
2018-09-24T12:33:23.379Z,14.70
2018-09-24T12:35:57.564Z,15.00
2018-09-24T12:38:32.185Z,15.10
2018-09-24T12:41:06.683Z,15.00
2018-09-24T12:43:40.810Z,15.10
2018-09-24T12:46:20.106Z,14.70
2018-09-24T12:48:54.178Z,14.70
2018-09-24T12:51:29.351Z,14.60
2018-09-24T12:54:03.921Z,14.70
2018-09-24T12:56:38.340Z,14.70
2018-09-24T12:59:12.588Z,15.00
2018-09-24T13:01:47.092Z,15.10
2018-09-24T13:04:21.760Z,15.00
2018-09-24T13:06:55.808Z,14.50
2018-09-24T13:09:29.804Z,14.60
2018-09-24T13:12:03.755Z,14.60
2018-09-24T13:14:38.056Z,14.70
2018-09-24T13:17:12.469Z,15.00
2018-09-24T13:19:46.681Z,15.10
2018-09-24T13:22:20.677Z,15.20
2018-09-24T13:24:54.669Z,15.50
2018-09-24T13:27:29.546Z,15.60
2018-09-24T13:30:03.538Z,15.30
2018-09-24T13:32:37.705Z,14.70
2018-09-24T13:35:12.074Z,14.30
2018-09-24T13:37:45.885Z,14.60
2018-09-24T13:40:19.745Z,14.80
2018-09-24T13:42:53.954Z,15.00
2018-09-24T13:45:30.986Z,15.00
2018-09-24T13:48:04.988Z,15.00
2018-09-24T13:50:39.152Z,15.00
2018-09-24T13:53:15.947Z,15.10
2018-09-24T13:55:50.395Z,15.00
2018-09-24T13:58:25.626Z,15.10
2018-09-24T14:00:59.738Z,15.10
2018-09-24T14:03:33.873Z,15.10
2018-09-24T14:06:07.964Z,14.90
2018-09-24T14:08:41.767Z,14.90
2018-09-24T14:11:15.598Z,14.80
2018-09-24T14:13:51.029Z,14.70
2018-09-24T14:16:25.109Z,15.10
2018-09-24T14:18:58.970Z,14.80
2018-09-24T14:21:33.755Z,14.80
2018-09-24T14:24:12.016Z,14.80
2018-09-24T14:26:47.253Z,14.90
2018-09-24T14:29:24.419Z,15.00
2018-09-24T14:31:58.707Z,15.00
2018-09-24T14:34:33.713Z,15.10
2018-09-24T14:37:11.217Z,15.40
2018-09-24T14:39:45.964Z,15.50
2018-09-24T14:42:20.689Z,15.60
2018-09-24T14:44:54.932Z,15.60
2018-09-24T14:47:29.397Z,15.70
2018-09-24T14:50:03.807Z,15.40
2018-09-24T14:52:38.115Z,15.30
2018-09-24T14:55:12.426Z,15.10
2018-09-24T14:57:46.476Z,15.10
2018-09-24T15:00:20.351Z,15.00
2018-09-24T15:02:54.773Z,15.00
2018-09-24T15:05:28.644Z,15.10
2018-09-24T15:08:03.193Z,15.10
2018-09-24T15:10:37.384Z,15.00
2018-09-24T15:13:11.625Z,14.90
2018-09-24T15:15:46.232Z,15.00
2018-09-24T15:18:20.528Z,15.00
2018-09-24T15:20:54.552Z,15.00
2018-09-24T15:23:28.697Z,14.90
2018-09-24T15:26:04.694Z,15.00
2018-09-24T15:28:40.410Z,15.10
2018-09-24T15:31:17.933Z,15.00
2018-09-24T15:33:52.747Z,15.00
2018-09-24T15:36:27.007Z,15.00
2018-09-24T15:39:01.086Z,15.00
2018-09-24T15:41:35.079Z,15.00
2018-09-24T15:44:09.390Z,15.10
2018-09-24T15:46:50.495Z,15.20
2018-09-24T15:49:24.565Z,15.20
2018-09-24T15:51:59.110Z,14.90
2018-09-24T15:54:32.941Z,15.00
2018-09-24T15:57:07.433Z,15.00
2018-09-24T15:59:41.409Z,15.00
2018-09-24T16:02:15.596Z,15.00
2018-09-24T16:04:49.655Z,14.90
2018-09-24T16:07:24.418Z,14.90
2018-09-24T16:09:58.596Z,14.80
2018-09-24T16:12:32.625Z,14.70
2018-09-24T16:15:07.303Z,14.60
2018-09-24T16:17:42.128Z,14.20
2018-09-24T16:20:16.803Z,14.10
2018-09-24T16:22:51.326Z,14.20
2018-09-24T16:25:25.892Z,14.10
2018-09-24T16:28:00.020Z,14.00
2018-09-24T16:30:36.054Z,13.90
2018-09-24T16:33:10.346Z,13.90
2018-09-24T16:35:44.862Z,13.80
2018-09-24T16:38:19.632Z,13.60
2018-09-24T16:40:54.097Z,13.70
2018-09-24T16:43:30.396Z,14.00
2018-09-24T16:46:04.987Z,13.90
2018-09-24T16:48:39.877Z,13.80
2018-09-24T16:51:14.367Z,13.80
2018-09-24T16:53:48.578Z,13.70
2018-09-24T16:56:22.307Z,13.60
2018-09-24T16:58:56.550Z,13.50
2018-09-24T17:01:30.472Z,13.40
2018-09-24T17:04:04.538Z,13.40
2018-09-24T17:06:38.571Z,13.30
2018-09-24T17:09:14.803Z,13.10
2018-09-24T17:14:32.439Z,13.00
2018-09-24T17:17:06.948Z,12.80
2018-09-24T17:19:40.880Z,12.80
2018-09-24T17:22:15.929Z,12.60
2018-09-24T17:24:50.282Z,12.50
2018-09-24T17:27:25.091Z,12.50
2018-09-24T17:29:59.808Z,12.50
2018-09-24T17:32:34.314Z,12.50
2018-09-24T17:35:08.871Z,12.50
2018-09-24T17:37:45.806Z,12.40
2018-09-24T17:40:19.988Z,12.30
2018-09-24T17:42:54.465Z,12.30
2018-09-24T17:45:28.765Z,12.30
2018-09-24T17:48:02.898Z,12.30
2018-09-24T17:50:37.455Z,12.20
2018-09-24T17:53:11.627Z,12.20
2018-09-24T17:55:45.912Z,12.20
2018-09-24T17:58:19.943Z,12.10
2018-09-24T18:00:54.029Z,12.10
2018-09-24T18:03:28.386Z,12.10
2018-09-24T18:06:03.132Z,12.00
2018-09-24T18:08:38.210Z,11.90
2018-09-24T18:11:12.561Z,11.80
2018-09-24T18:13:48.100Z,11.70
2018-09-24T18:16:22.411Z,11.70
2018-09-24T18:18:56.566Z,11.70
2018-09-24T18:21:30.589Z,11.60
2018-09-24T18:24:04.859Z,11.70
2018-09-24T18:26:39.480Z,11.70
2018-09-24T18:29:13.585Z,11.50
2018-09-24T18:31:47.892Z,11.50
2018-09-24T18:34:22.272Z,11.30
2018-09-24T18:36:56.466Z,11.10
2018-09-24T18:39:30.662Z,11.10
2018-09-24T18:42:04.787Z,11.00
2018-09-24T18:44:38.757Z,11.10
2018-09-24T18:47:13.117Z,11.10
2018-09-24T18:49:47.682Z,11.10
2018-09-24T18:52:21.845Z,11.00
2018-09-24T18:54:55.743Z,11.10
2018-09-24T18:57:31.589Z,11.00
2018-09-24T19:00:05.680Z,11.00
2018-09-24T19:02:40.350Z,10.90
2018-09-24T19:05:26.971Z,11.00
2018-09-24T19:08:00.976Z,11.00
2018-09-24T19:10:35.413Z,11.00
2018-09-24T19:13:10.121Z,10.90
2018-09-24T19:15:44.532Z,10.80
2018-09-24T19:18:18.915Z,10.90
2018-09-24T19:20:53.377Z,10.90
2018-09-24T19:23:27.402Z,10.90
2018-09-24T19:26:01.855Z,10.90
2018-09-24T19:28:36.251Z,10.90
2018-09-24T19:31:10.657Z,10.80
2018-09-24T19:33:44.651Z,10.80
2018-09-24T19:36:18.786Z,10.90
2018-09-24T19:38:53.010Z,10.80
2018-09-24T19:41:26.833Z,10.90
2018-09-24T19:44:01.261Z,11.00
2018-09-24T19:46:35.050Z,11.00
2018-09-24T19:49:09.153Z,11.00
2018-09-24T19:51:42.978Z,10.90
2018-09-24T19:54:17.127Z,11.00
2018-09-24T19:56:52.457Z,10.90
2018-09-24T19:59:28.116Z,10.90
2018-09-24T20:02:02.679Z,11.00
2018-09-24T20:04:36.676Z,11.00
2018-09-24T20:07:11.976Z,11.00
2018-09-24T20:09:46.171Z,11.00
2018-09-24T20:12:20.163Z,10.90
2018-09-24T20:14:54.264Z,10.80
2018-09-24T20:17:28.578Z,10.80
2018-09-24T20:20:02.775Z,10.80
2018-09-24T20:22:36.725Z,10.80
2018-09-24T20:25:10.844Z,10.70
2018-09-24T20:27:44.801Z,10.80
2018-09-24T20:30:18.881Z,10.80
2018-09-24T20:32:52.648Z,10.80
2018-09-24T20:35:26.554Z,10.70
2018-09-24T20:38:00.780Z,10.80
2018-09-24T20:40:34.795Z,10.70
2018-09-24T20:43:08.735Z,10.70
2018-09-24T20:45:42.814Z,10.50
2018-09-24T20:48:17.114Z,10.60
2018-09-24T20:50:52.495Z,10.60
2018-09-24T20:53:26.484Z,10.50
2018-09-24T20:56:01.292Z,10.50
2018-09-24T20:58:35.499Z,10.50
2018-09-24T21:01:10.949Z,10.50
2018-09-24T21:03:45.002Z,10.50
2018-09-24T21:06:19.221Z,10.40
2018-09-24T21:08:54.921Z,10.40
2018-09-24T21:11:30.832Z,10.40
2018-09-24T21:14:05.771Z,10.40
2018-09-24T21:16:39.873Z,10.40
2018-09-24T21:19:13.993Z,10.40
2018-09-24T21:21:48.392Z,10.30
2018-09-24T21:24:22.169Z,10.30
2018-09-24T21:26:56.413Z,10.30
2018-09-24T21:29:30.527Z,10.30
2018-09-24T21:32:04.441Z,10.30
2018-09-24T21:34:38.364Z,10.30
2018-09-24T21:37:12.649Z,10.20
2018-09-24T21:39:46.795Z,10.20
2018-09-24T21:42:20.719Z,10.10
2018-09-24T21:45:01.093Z,10.20
2018-09-24T21:47:35.231Z,10.30
2018-09-24T21:50:09.515Z,10.30
2018-09-24T21:52:43.307Z,10.20
2018-09-24T21:55:17.487Z,10.20
2018-09-24T21:57:51.514Z,10.10
2018-09-24T22:00:25.473Z,10.10
2018-09-24T22:02:59.381Z,10.00
2018-09-24T22:05:33.326Z,10.00
2018-09-24T22:08:07.347Z,10.00
2018-09-24T22:10:42.924Z,10.00
2018-09-24T22:13:17.019Z,9.90
2018-09-24T22:15:51.032Z,9.90
2018-09-24T22:18:24.956Z,9.90
2018-09-24T22:20:59.113Z,9.90
2018-09-24T22:23:33.101Z,10.00
2018-09-24T22:26:07.298Z,9.70
2018-09-24T22:28:42.759Z,9.80
2018-09-24T22:31:17.027Z,9.80
2018-09-24T22:33:50.856Z,9.80
2018-09-24T22:36:24.855Z,9.80
2018-09-24T22:38:58.979Z,9.80
2018-09-24T22:41:33.380Z,9.80
2018-09-24T22:44:07.886Z,9.80
2018-09-24T22:46:41.980Z,9.70
2018-09-24T22:49:16.308Z,9.60
2018-09-24T22:51:52.277Z,9.70
2018-09-24T22:54:26.414Z,9.60
2018-09-24T22:57:00.382Z,9.50
2018-09-24T22:59:36.863Z,9.50
2018-09-24T23:02:11.142Z,9.60
2018-09-24T23:04:45.245Z,9.70
2018-09-24T23:07:19.331Z,9.60
2018-09-24T23:09:53.644Z,9.60
2018-09-24T23:12:27.959Z,9.60
2018-09-24T23:15:02.044Z,9.60
2018-09-24T23:17:36.070Z,9.50
2018-09-24T23:20:10.179Z,9.60
2018-09-24T23:22:44.212Z,9.60
2018-09-24T23:25:18.020Z,9.60
2018-09-24T23:27:52.179Z,9.50
2018-09-24T23:30:25.957Z,9.50
2018-09-24T23:33:00.248Z,9.50
2018-09-24T23:35:34.436Z,9.50
2018-09-24T23:38:08.593Z,9.40
2018-09-24T23:40:43.189Z,9.40
2018-09-24T23:43:18.051Z,9.40
2018-09-24T23:45:52.251Z,9.40
2018-09-24T23:48:26.262Z,9.40
2018-09-24T23:51:00.335Z,9.30
2018-09-24T23:53:34.558Z,9.20
2018-09-24T23:56:08.620Z,9.10
2018-09-24T23:58:43.044Z,9.10
